createdAt,value
2022-11-17T00:01:23.728Z,97.91
2022-11-17T00:04:27.548Z,98.58
2022-11-17T00:07:29.413Z,98.07
2022-11-17T00:10:31.684Z,98.05
2022-11-17T00:13:51.995Z,97.98
2022-11-17T00:16:53.742Z,97.34
2022-11-17T00:20:14.219Z,96.47
2022-11-17T00:23:16.031Z,96.53
2022-11-17T00:26:19.877Z,97.65
2022-11-17T00:29:21.668Z,97.57
2022-11-17T00:32:41.994Z,97.37
2022-11-17T00:35:43.796Z,98.43
2022-11-17T00:38:45.536Z,98.80
2022-11-17T00:41:47.380Z,99.62
2022-11-17T00:44:49.104Z,99.77
2022-11-17T00:47:50.822Z,99.53
2022-11-17T00:50:52.565Z,99.54
2022-11-17T00:53:54.359Z,99.35
2022-11-17T00:56:56.333Z,98.44
2022-11-17T00:59:58.122Z,98.56
2022-11-17T01:02:59.908Z,98.62
2022-11-17T01:06:09.373Z,98.88
2022-11-17T01:09:12.591Z,99.74
2022-11-17T01:12:14.249Z,100.00
2022-11-17T01:15:16.022Z,100.00
2022-11-17T01:18:17.744Z,100.00
2022-11-17T01:21:22.390Z,100.00
2022-11-17T01:24:24.192Z,100.00
2022-11-17T01:27:25.875Z,100.00
2022-11-17T01:30:27.601Z,100.00
2022-11-17T01:33:29.346Z,100.00
2022-11-17T01:36:52.408Z,100.00
2022-11-17T01:39:54.113Z,100.00
2022-11-17T01:42:55.759Z,100.00
2022-11-17T01:45:57.934Z,100.00
2022-11-17T01:49:24.430Z,100.00
2022-11-17T01:52:26.391Z,100.00
2022-11-17T01:55:33.554Z,100.00
2022-11-17T01:58:36.858Z,100.00
2022-11-17T02:01:56.159Z,100.00
2022-11-17T02:05:11.803Z,100.00
2022-11-17T02:08:14.615Z,100.00
2022-11-17T02:11:18.826Z,100.00
2022-11-17T02:14:20.477Z,100.00
2022-11-17T02:17:35.154Z,100.00
2022-11-17T02:20:58.225Z,100.00
2022-11-17T02:24:37.553Z,100.00
2022-11-17T02:28:17.385Z,100.00
2022-11-17T02:31:40.793Z,100.00
2022-11-17T02:34:46.817Z,100.00
2022-11-17T02:38:09.906Z,100.00
2022-11-17T02:41:36.100Z,100.00
2022-11-17T02:44:40.037Z,100.00
2022-11-17T02:47:43.830Z,100.00
2022-11-17T02:50:47.028Z,100.00
2022-11-17T02:53:54.650Z,100.00
2022-11-17T02:56:56.350Z,100.00
2022-11-17T03:00:05.044Z,100.00
2022-11-17T03:03:19.049Z,100.00
2022-11-17T03:06:51.837Z,100.00
2022-11-17T03:10:14.942Z,100.00
2022-11-17T03:13:41.009Z,100.00
2022-11-17T03:16:55.372Z,100.00
2022-11-17T03:20:04.831Z,100.00
2022-11-17T03:23:38.481Z,100.00
2022-11-17T03:26:44.958Z,100.00
2022-11-17T03:29:49.863Z,100.00
2022-11-17T03:32:58.889Z,100.00
2022-11-17T03:36:21.961Z,100.00
2022-11-17T03:39:29.641Z,100.00
2022-11-17T03:42:34.161Z,100.00
2022-11-17T03:45:39.150Z,100.00
2022-11-17T03:49:02.762Z,100.00
2022-11-17T03:52:05.148Z,100.00
2022-11-17T03:55:08.028Z,100.00
2022-11-17T03:58:13.036Z,100.00
2022-11-17T04:01:15.208Z,100.00
2022-11-17T04:04:18.932Z,100.00
2022-11-17T04:07:21.099Z,100.00
2022-11-17T04:10:25.838Z,100.00
2022-11-17T04:13:48.806Z,100.00
2022-11-17T04:16:50.491Z,100.00
2022-11-17T04:19:52.194Z,100.00
2022-11-17T04:23:08.781Z,100.00
2022-11-17T04:26:29.616Z,100.00
2022-11-17T04:29:31.628Z,100.00
2022-11-17T04:32:33.364Z,100.00
2022-11-17T04:35:35.211Z,100.00
2022-11-17T04:38:37.342Z,100.00
2022-11-17T04:41:54.937Z,100.00
2022-11-17T04:44:56.635Z,100.00
2022-11-17T04:47:58.335Z,100.00
2022-11-17T04:51:00.047Z,100.00
2022-11-17T04:54:02.438Z,100.00
2022-11-17T04:57:04.144Z,100.00
2022-11-17T05:00:06.660Z,100.00
2022-11-17T05:03:08.599Z,100.00
2022-11-17T05:06:12.201Z,100.00
2022-11-17T05:09:15.875Z,100.00
2022-11-17T05:12:35.817Z,100.00
2022-11-17T05:15:56.277Z,100.00
2022-11-17T05:18:58.234Z,100.00
2022-11-17T05:22:00.292Z,100.00
2022-11-17T05:25:02.281Z,100.00
2022-11-17T05:28:04.128Z,100.00
2022-11-17T05:31:06.204Z,100.00
2022-11-17T05:34:09.619Z,100.00
2022-11-17T05:37:11.585Z,100.00
2022-11-17T05:40:13.329Z,100.00
2022-11-17T05:43:15.033Z,100.00
2022-11-17T05:46:18.331Z,100.00
2022-11-17T05:49:20.263Z,100.00
2022-11-17T05:52:21.983Z,100.00
2022-11-17T05:55:23.859Z,100.00
2022-11-17T05:58:27.588Z,100.00
2022-11-17T06:01:30.105Z,100.00
2022-11-17T06:04:32.961Z,100.00
2022-11-17T06:07:36.680Z,100.00
2022-11-17T06:10:38.680Z,100.00
2022-11-17T06:13:40.448Z,100.00
2022-11-17T06:16:44.344Z,100.00
2022-11-17T06:19:51.911Z,99.87
2022-11-17T06:22:56.365Z,99.83
2022-11-17T06:25:59.216Z,99.14
2022-11-17T06:29:03.158Z,99.70
2022-11-17T06:32:05.155Z,100.00
2022-11-17T06:35:07.979Z,100.00
2022-11-17T06:38:09.742Z,99.33
2022-11-17T06:41:12.153Z,98.85
2022-11-17T06:44:14.303Z,98.89
2022-11-17T06:47:17.715Z,99.66
2022-11-17T06:50:19.977Z,100.00
2022-11-17T06:53:26.604Z,100.00
2022-11-17T06:56:28.776Z,100.00
2022-11-17T06:59:30.879Z,100.00
2022-11-17T07:02:33.007Z,100.00
2022-11-17T07:05:36.583Z,100.00
2022-11-17T07:08:39.255Z,100.00
2022-11-17T07:11:41.447Z,100.00
2022-11-17T07:14:43.644Z,100.00
2022-11-17T07:17:45.676Z,100.00
2022-11-17T07:20:48.496Z,100.00
2022-11-17T07:23:50.499Z,100.00
2022-11-17T07:26:52.706Z,100.00
2022-11-17T07:29:57.959Z,100.00
2022-11-17T07:33:01.171Z,99.99
2022-11-17T07:36:11.445Z,100.00
2022-11-17T07:39:20.981Z,100.00
2022-11-17T07:42:24.135Z,100.00
2022-11-17T07:45:31.941Z,98.62
2022-11-17T07:48:35.441Z,97.58
2022-11-17T07:51:37.931Z,96.41
2022-11-17T07:54:40.753Z,95.69
2022-11-17T07:57:44.683Z,96.58
2022-11-17T08:00:46.699Z,95.75
2022-11-17T08:03:48.787Z,94.91
2022-11-17T08:06:50.848Z,94.42
2022-11-17T08:09:52.818Z,94.60
2022-11-17T08:12:55.183Z,93.24
2022-11-17T08:16:00.198Z,94.20
2022-11-17T08:19:04.385Z,94.47
2022-11-17T08:22:06.848Z,93.69
2022-11-17T08:25:09.532Z,93.24
2022-11-17T08:28:12.393Z,93.11
2022-11-17T08:31:14.859Z,91.76
2022-11-17T08:34:17.163Z,92.10
2022-11-17T08:37:19.144Z,91.91
2022-11-17T08:40:21.257Z,90.41
2022-11-17T08:43:23.411Z,90.36
2022-11-17T08:46:28.638Z,90.71
2022-11-17T08:49:31.221Z,88.88
2022-11-17T08:52:33.292Z,90.05
2022-11-17T08:55:40.977Z,89.81
2022-11-17T08:58:45.084Z,89.55
2022-11-17T09:01:47.577Z,90.24
2022-11-17T09:04:51.232Z,89.60
2022-11-17T09:07:54.004Z,90.24
2022-11-17T09:10:56.766Z,90.40
2022-11-17T09:13:59.601Z,90.29
2022-11-17T09:17:01.973Z,91.25
2022-11-17T09:20:04.416Z,90.70
2022-11-17T09:23:07.320Z,89.64
2022-11-17T09:26:12.163Z,89.60
2022-11-17T09:29:14.469Z,90.67
2022-11-17T09:32:17.337Z,91.44
2022-11-17T09:35:20.176Z,91.32
2022-11-17T09:38:22.314Z,91.38
2022-11-17T09:41:34.026Z,91.71
2022-11-17T09:44:42.578Z,90.42
2022-11-17T09:47:58.533Z,90.14
2022-11-17T09:51:12.989Z,87.72
2022-11-17T09:54:30.712Z,88.37
2022-11-17T09:57:39.958Z,88.22
2022-11-17T10:00:44.010Z,88.72
2022-11-17T10:03:48.732Z,87.99
2022-11-17T10:06:51.328Z,85.97
2022-11-17T10:09:54.879Z,85.87
2022-11-17T10:13:06.466Z,83.33
2022-11-17T10:16:13.037Z,83.43
2022-11-17T10:19:27.452Z,85.64
2022-11-17T10:22:34.860Z,84.29
2022-11-17T10:25:41.165Z,84.40
2022-11-17T10:28:43.404Z,85.75
2022-11-17T10:31:46.878Z,82.01
2022-11-17T10:34:49.058Z,81.31
2022-11-17T10:38:03.475Z,81.80
2022-11-17T10:41:14.988Z,80.92
2022-11-17T10:44:24.583Z,79.94
2022-11-17T10:47:39.703Z,79.88
2022-11-17T10:50:55.368Z,79.16
2022-11-17T10:54:14.038Z,80.45
2022-11-17T10:57:22.855Z,80.77
2022-11-17T11:00:25.397Z,80.43
2022-11-17T11:03:33.018Z,81.01
2022-11-17T11:06:36.007Z,79.85
2022-11-17T11:10:17.091Z,78.94
2022-11-17T11:13:25.818Z,75.41
2022-11-17T11:16:30.421Z,74.55
2022-11-17T11:19:33.240Z,76.42
2022-11-17T11:22:54.223Z,77.30
2022-11-17T11:26:12.073Z,78.54
2022-11-17T11:29:30.377Z,78.63
2022-11-17T11:32:50.964Z,77.47
2022-11-17T11:36:24.180Z,78.29
2022-11-17T11:39:44.941Z,78.99
2022-11-17T11:43:02.428Z,80.04
2022-11-17T11:46:09.305Z,79.27
2022-11-17T11:49:16.880Z,77.23
2022-11-17T11:52:25.044Z,77.92
2022-11-17T11:55:35.017Z,77.77
2022-11-17T11:58:42.930Z,75.94
2022-11-17T12:02:11.321Z,76.73
2022-11-17T12:05:19.778Z,76.04
2022-11-17T12:08:39.800Z,75.57
2022-11-17T12:12:00.992Z,74.86
2022-11-17T12:15:08.262Z,75.92
2022-11-17T12:18:13.281Z,76.60
2022-11-17T12:21:23.654Z,74.73
2022-11-17T12:24:33.757Z,74.51
2022-11-17T12:27:35.892Z,73.93
2022-11-17T12:30:44.289Z,74.17
2022-11-17T12:33:52.186Z,74.35
2022-11-17T12:37:13.261Z,74.59
2022-11-17T12:40:41.771Z,75.92
2022-11-17T12:43:43.923Z,75.58
2022-11-17T12:46:48.145Z,76.99
2022-11-17T12:50:09.258Z,76.32
2022-11-17T12:53:14.543Z,77.08
2022-11-17T12:56:28.467Z,76.90
2022-11-17T12:59:58.482Z,77.59
2022-11-17T13:03:10.228Z,77.24
2022-11-17T13:09:38.108Z,78.08
2022-11-17T13:12:40.025Z,78.35
2022-11-17T13:15:43.414Z,78.50
2022-11-17T13:18:46.410Z,79.39
2022-11-17T13:21:48.328Z,80.14
2022-11-17T13:24:53.458Z,78.66
2022-11-17T13:27:59.762Z,80.28
2022-11-17T13:31:05.251Z,81.22
2022-11-17T13:34:17.979Z,81.04
2022-11-17T13:37:26.204Z,82.03
2022-11-17T13:40:28.621Z,82.15
2022-11-17T13:43:38.091Z,81.78
2022-11-17T13:46:42.861Z,83.04
2022-11-17T13:49:44.876Z,81.99
2022-11-17T13:52:47.450Z,82.75
2022-11-17T13:55:50.830Z,84.00
2022-11-17T13:58:53.098Z,82.94
2022-11-17T14:02:17.435Z,81.79
2022-11-17T14:05:23.416Z,82.66
2022-11-17T14:08:28.893Z,83.25
2022-11-17T14:11:31.584Z,83.41
2022-11-17T14:14:45.562Z,83.77
2022-11-17T14:18:01.597Z,82.99
2022-11-17T14:21:07.967Z,83.90
2022-11-17T14:24:12.665Z,83.51
2022-11-17T14:27:35.976Z,83.70
2022-11-17T14:30:37.892Z,84.41
2022-11-17T14:33:40.761Z,84.55
2022-11-17T14:36:42.883Z,85.00
2022-11-17T14:39:45.181Z,85.70
2022-11-17T14:42:47.373Z,85.44
2022-11-17T14:45:50.541Z,85.93
2022-11-17T14:48:53.465Z,86.63
2022-11-17T14:51:57.490Z,87.08
2022-11-17T14:55:00.923Z,86.97
2022-11-17T14:58:03.174Z,88.18
2022-11-17T15:01:18.947Z,88.40
2022-11-17T15:04:48.745Z,88.59
2022-11-17T15:07:43.790Z,88.91
2022-11-17T15:10:46.648Z,89.32
2022-11-17T15:13:50.011Z,90.11
2022-11-17T15:16:55.153Z,90.19
2022-11-17T15:19:57.511Z,90.36
2022-11-17T15:23:03.259Z,90.65
2022-11-17T15:26:08.414Z,90.88
2022-11-17T15:29:17.821Z,91.07
2022-11-17T15:32:20.837Z,90.33
2022-11-17T15:35:22.929Z,90.74
2022-11-17T15:38:25.271Z,91.65
2022-11-17T15:41:32.844Z,92.02
2022-11-17T15:44:35.347Z,91.96
2022-11-17T15:47:38.015Z,91.12
2022-11-17T15:50:40.640Z,90.68
2022-11-17T15:53:44.350Z,91.27
2022-11-17T15:56:46.507Z,90.48
2022-11-17T15:59:49.262Z,89.97
2022-11-17T16:02:57.244Z,89.41
2022-11-17T16:06:00.996Z,90.51
2022-11-17T16:09:04.676Z,91.05
2022-11-17T16:12:06.925Z,91.27
2022-11-17T16:15:09.648Z,91.66
2022-11-17T16:18:12.319Z,90.98
2022-11-17T16:21:15.740Z,90.63
2022-11-17T16:24:21.573Z,90.59
2022-11-17T16:27:23.739Z,90.22
2022-11-17T16:30:34.203Z,89.70
2022-11-17T16:33:42.491Z,89.80
2022-11-17T16:36:45.410Z,89.74
2022-11-17T16:39:48.232Z,89.85
2022-11-17T16:42:50.534Z,90.67
2022-11-17T16:45:52.808Z,90.81
2022-11-17T16:48:56.049Z,91.14
2022-11-17T16:51:58.413Z,92.01
2022-11-17T16:55:04.839Z,92.34
2022-11-17T16:58:08.079Z,93.27
2022-11-17T17:01:25.018Z,94.95
2022-11-17T17:04:31.379Z,96.21
2022-11-17T17:07:33.839Z,96.19
2022-11-17T17:10:36.044Z,96.58
2022-11-17T17:13:38.839Z,97.14
2022-11-17T17:16:41.911Z,97.33
2022-11-17T17:19:43.896Z,97.07
2022-11-17T17:22:45.854Z,97.45
2022-11-17T17:25:47.937Z,97.37
2022-11-17T17:28:52.359Z,97.89
2022-11-17T17:31:54.582Z,98.29
2022-11-17T17:34:58.669Z,97.83
2022-11-17T17:38:01.036Z,98.01
2022-11-17T17:41:14.823Z,97.42
2022-11-17T17:44:19.859Z,96.75
2022-11-17T17:47:23.993Z,97.04
2022-11-17T17:50:27.207Z,97.18
2022-11-17T17:53:29.791Z,97.09
2022-11-17T17:56:34.178Z,96.37
2022-11-17T17:59:36.406Z,96.21
2022-11-17T18:02:38.904Z,96.34
2022-11-17T18:05:44.308Z,96.56
2022-11-17T18:08:47.076Z,96.75
2022-11-17T18:11:51.180Z,95.68
2022-11-17T18:14:53.664Z,95.09
2022-11-17T18:17:55.802Z,94.41
2022-11-17T18:21:01.386Z,95.35
2022-11-17T18:24:04.646Z,94.36
2022-11-17T18:27:07.830Z,93.97
2022-11-17T18:30:11.247Z,93.40
2022-11-17T18:33:14.953Z,92.61
2022-11-17T18:36:17.787Z,92.84
2022-11-17T18:39:23.613Z,92.20
2022-11-17T18:42:26.035Z,92.28
2022-11-17T18:45:29.853Z,92.47
2022-11-17T18:48:34.913Z,92.14
2022-11-17T18:51:37.876Z,91.62
2022-11-17T18:54:40.415Z,91.80
2022-11-17T18:57:46.153Z,91.00
2022-11-17T19:00:50.029Z,90.97
2022-11-17T19:03:53.812Z,90.48
2022-11-17T19:06:56.278Z,90.62
2022-11-17T19:09:59.679Z,91.12
2022-11-17T19:13:02.354Z,90.92
2022-11-17T19:16:10.763Z,91.28
2022-11-17T19:19:15.632Z,90.38
2022-11-17T19:22:38.859Z,90.38
2022-11-17T19:25:43.200Z,90.65
2022-11-17T19:28:46.085Z,90.54
2022-11-17T19:31:51.381Z,90.45
2022-11-17T19:34:54.214Z,90.95
2022-11-17T19:37:58.419Z,90.89
2022-11-17T19:41:06.285Z,90.76
2022-11-17T19:44:09.638Z,90.35
2022-11-17T19:47:13.604Z,90.16
2022-11-17T19:50:19.192Z,90.31
2022-11-17T19:53:22.252Z,90.39
2022-11-17T19:56:25.780Z,90.66
2022-11-17T19:59:29.138Z,90.45
2022-11-17T20:02:31.357Z,90.05
2022-11-17T20:05:33.819Z,89.92
2022-11-17T20:08:36.389Z,90.09
2022-11-17T20:11:40.347Z,90.21
2022-11-17T20:14:44.856Z,90.43
2022-11-17T20:17:46.999Z,90.59
2022-11-17T20:20:51.806Z,90.90
2022-11-17T20:23:55.203Z,90.54
2022-11-17T20:26:58.166Z,91.91
2022-11-17T20:30:01.319Z,93.31
2022-11-17T20:33:03.880Z,94.26
2022-11-17T20:36:07.386Z,94.41
2022-11-17T20:39:09.585Z,94.80
2022-11-17T20:42:14.054Z,95.05
2022-11-17T20:45:16.981Z,96.40
2022-11-17T20:48:20.293Z,96.66
2022-11-17T20:51:24.237Z,96.53
2022-11-17T20:54:26.390Z,96.04
2022-11-17T20:57:28.750Z,96.34
2022-11-17T21:00:30.732Z,96.88
2022-11-17T21:03:32.814Z,97.27
2022-11-17T21:06:34.769Z,95.63
2022-11-17T21:09:37.091Z,95.27
2022-11-17T21:12:39.840Z,94.58
2022-11-17T21:16:04.872Z,93.26
2022-11-17T21:19:07.703Z,92.80
2022-11-17T21:22:09.966Z,92.26
2022-11-17T21:25:12.075Z,91.83
2022-11-17T21:28:14.139Z,92.06
2022-11-17T21:31:18.885Z,92.84
2022-11-17T21:34:20.806Z,92.68
2022-11-17T21:37:24.649Z,91.94
2022-11-17T21:40:26.747Z,91.51
2022-11-17T21:43:29.379Z,91.55
2022-11-17T21:46:33.337Z,91.32
2022-11-17T21:49:35.124Z,92.24
2022-11-17T21:52:36.965Z,91.22
2022-11-17T21:55:38.930Z,91.59
2022-11-17T21:58:41.447Z,92.04
2022-11-17T22:01:43.459Z,92.11
2022-11-17T22:04:45.733Z,92.10
2022-11-17T22:07:47.480Z,91.93
2022-11-17T22:10:49.385Z,92.47
2022-11-17T22:13:51.348Z,93.59
2022-11-17T22:16:55.444Z,94.37
2022-11-17T22:19:57.197Z,93.25
2022-11-17T22:22:59.131Z,93.42
2022-11-17T22:26:03.380Z,94.60
2022-11-17T22:29:06.385Z,94.38
2022-11-17T22:32:08.342Z,94.49
2022-11-17T22:35:10.153Z,94.63
2022-11-17T22:38:15.559Z,94.72
2022-11-17T22:41:19.088Z,93.91
2022-11-17T22:44:20.946Z,93.65
2022-11-17T22:47:22.879Z,92.10
2022-11-17T22:50:24.651Z,92.43
2022-11-17T22:53:27.087Z,91.89
2022-11-17T22:56:29.072Z,91.26
2022-11-17T22:59:30.821Z,91.39
2022-11-17T23:02:32.581Z,91.89
2022-11-17T23:05:34.340Z,92.12
2022-11-17T23:08:36.511Z,91.81
2022-11-17T23:11:38.911Z,91.97
2022-11-17T23:14:40.645Z,91.73
2022-11-17T23:17:42.963Z,91.03
2022-11-17T23:20:44.852Z,91.15
2022-11-17T23:23:46.745Z,91.52
2022-11-17T23:26:48.652Z,91.15
2022-11-17T23:29:50.532Z,91.21
2022-11-17T23:32:55.838Z,91.55
2022-11-17T23:35:58.026Z,91.32
2022-11-17T23:38:59.756Z,90.73
2022-11-17T23:42:01.566Z,90.36
2022-11-17T23:45:03.631Z,90.29
2022-11-17T23:48:05.500Z,91.32
2022-11-17T23:51:09.172Z,91.44
2022-11-17T23:54:12.408Z,91.57
2022-11-17T23:57:14.052Z,91.87
